Time;durP1;ratioP1;P1;durP2;ratioP2;P2;SDS_P1;SDS_P2;PMS_P1;PMS_P2;Temp;Humidity;BMP_temperature;BMP_pressure;BME280_temperature;BME280_humidity;BME280_pressure;Samples;Min_cycle;Max_cycle;Signal;HPM_P1;HPM_P2
2021/12/30 00:01:30;;;;;;;26.43;6.00;;;11.70;99.90;;;;;;5074211;28;20217;-58
2021/12/30 00:03:57;;;;;;;27.83;5.90;;;11.70;99.90;;;;;;5058460;28;20213;-58
2021/12/30 00:06:24;;;;;;;26.00;6.10;;;11.70;99.90;;;;;;5059711;28;20502;-59
2021/12/30 00:08:53;;;;;;;25.80;6.10;;;11.70;99.90;;;;;;5058011;28;20253;-57
2021/12/30 00:11:21;;;;;;;25.67;6.33;;;11.70;99.90;;;;;;5059348;28;20309;-55
2021/12/30 00:13:48;;;;;;;25.03;5.17;;;11.70;99.90;;;;;;5060072;28;20234;-60
2021/12/30 00:16:17;;;;;;;27.37;6.40;;;11.70;99.90;;;;;;5058056;28;20220;-60
2021/12/30 00:18:45;;;;;;;25.57;6.97;;;11.70;99.90;;;;;;5054763;28;20229;-58
2021/12/30 00:21:12;;;;;;;21.10;5.97;;;11.80;99.90;;;;;;5042032;28;20713;-60
2021/12/30 00:23:39;;;;;;;25.13;6.27;;;11.80;99.90;;;;;;5060757;28;20213;-59
2021/12/30 00:26:06;;;;;;;25.10;6.60;;;11.70;99.90;;;;;;5057472;28;20257;-55
2021/12/30 00:28:37;;;;;;;26.20;6.17;;;11.70;99.90;;;;;;5074100;28;20295;-60
2021/12/30 00:31:04;;;;;;;30.17;7.17;;;11.80;99.90;;;;;;5058931;28;20234;-60
2021/12/30 00:33:33;;;;;;;30.07;7.33;;;11.80;99.90;;;;;;5057368;28;20617;-58
2021/12/30 00:36:07;;;;;;;29.43;7.97;;;11.90;99.90;;;;;;5060424;28;20201;-60
2021/12/30 00:38:39;;;;;;;24.30;7.87;;;11.90;99.90;;;;;;5069619;28;20291;-56
2021/12/30 00:41:07;;;;;;;24.97;7.70;;;11.90;99.90;;;;;;5058995;28;20208;-60
2021/12/30 00:43:35;;;;;;;25.90;7.97;;;12.00;99.90;;;;;;5059338;28;20232;-59
2021/12/30 00:46:02;;;;;;;31.43;7.60;;;12.10;99.90;;;;;;5055056;28;20256;-58
2021/12/30 00:48:29;;;;;;;30.57;8.87;;;12.10;99.90;;;;;;5057856;28;20201;-57
2021/12/30 00:50:56;;;;;;;34.97;8.80;;;12.00;99.90;;;;;;5057933;28;20213;-58
2021/12/30 00:53:24;;;;;;;38.90;9.13;;;12.10;99.90;;;;;;5057592;28;20236;-57
2021/12/30 00:55:50;;;;;;;24.03;8.10;;;12.10;99.90;;;;;;5059291;28;20225;-58
2021/12/30 00:58:18;;;;;;;22.83;7.80;;;12.10;99.90;;;;;;5057165;28;20274;-59
2021/12/30 01:00:46;;;;;;;34.73;8.87;;;12.10;99.90;;;;;;5073156;28;20622;-60
2021/12/30 01:03:14;;;;;;;38.00;9.27;;;12.20;99.90;;;;;;5056992;28;20207;-59
2021/12/30 01:05:42;;;;;;;23.27;9.23;;;12.20;99.90;;;;;;5073803;28;20237;-57
2021/12/30 01:08:09;;;;;;;28.90;8.77;;;12.20;99.90;;;;;;5058995;28;20217;-60
2021/12/30 01:10:37;;;;;;;31.10;8.83;;;12.20;99.90;;;;;;5073258;28;20924;-60
2021/12/30 01:13:10;;;;;;;25.70;9.77;;;12.10;99.90;;;;;;5056968;28;20253;-58
2021/12/30 01:15:59;;;;;;;28.27;8.50;;;12.10;99.90;;;;;;5059513;28;20712;-56
2021/12/30 01:18:53;;;;;;;33.37;10.40;;;12.10;99.90;;;;;;5040820;28;20203;-56
2021/12/30 01:21:21;;;;;;;29.37;9.43;;;12.10;99.90;;;;;;5050431;28;20241;-57
2021/12/30 01:23:48;;;;;;;39.53;11.90;;;12.10;99.90;;;;;;5057397;28;20296;-58
2021/12/30 01:26:15;;;;;;;30.07;9.40;;;12.10;99.90;;;;;;5057160;28;20229;-59
2021/12/30 01:28:43;;;;;;;34.93;10.13;;;12.00;99.90;;;;;;5055967;28;20229;-59
2021/12/30 01:31:11;;;;;;;27.37;8.93;;;12.10;99.90;;;;;;5072627;28;20300;-57
2021/12/30 01:33:43;;;;;;;33.83;8.90;;;12.10;99.90;;;;;;5054629;28;20300;-59
2021/12/30 01:36:11;;;;;;;31.07;9.47;;;12.00;99.90;;;;;;5055241;28;20230;-57
2021/12/30 01:38:39;;;;;;;25.20;9.10;;;12.00;99.90;;;;;;5056170;28;20212;-60
2021/12/30 01:41:07;;;;;;;22.97;9.67;;;12.00;99.90;;;;;;5054718;28;20289;-55
2021/12/30 01:43:36;;;;;;;28.13;10.40;;;12.00;99.90;;;;;;5056270;28;20208;-60
2021/12/30 01:46:07;;;;;;;34.87;9.63;;;12.00;99.90;;;;;;5054244;28;20234;-58
2021/12/30 01:48:36;;;;;;;30.60;9.00;;;12.00;99.90;;;;;;5054019;28;20212;-59
2021/12/30 01:51:04;;;;;;;31.50;9.27;;;12.00;99.90;;;;;;5053570;28;20225;-59
2021/12/30 01:53:32;;;;;;;27.43;9.67;;;12.00;99.90;;;;;;5055141;28;20732;-58
2021/12/30 01:56:00;;;;;;;28.20;9.00;;;12.10;99.90;;;;;;5055540;28;20560;-59
2021/12/30 01:58:27;;;;;;;27.67;9.23;;;12.10;99.90;;;;;;5053118;28;20585;-58
2021/12/30 02:00:55;;;;;;;30.90;9.07;;;12.10;99.90;;;;;;5059554;28;20848;-59
2021/12/30 02:03:24;;;;;;;27.17;9.80;;;12.10;99.90;;;;;;5070523;28;20677;-60
2021/12/30 02:05:51;;;;;;;27.23;9.30;;;12.10;99.90;;;;;;5055510;28;20788;-58
2021/12/30 02:08:21;;;;;;;26.87;9.00;;;12.10;99.90;;;;;;5056130;28;20218;-59
2021/12/30 02:10:53;;;;;;;26.37;9.13;;;12.20;99.90;;;;;;5055179;28;20335;-59
2021/12/30 02:13:21;;;;;;;27.40;9.30;;;12.10;99.90;;;;;;5053560;28;20293;-59
2021/12/30 02:15:52;;;;;;;31.20;9.50;;;12.20;99.90;;;;;;5053738;28;20225;-58
2021/12/30 02:18:22;;;;;;;23.37;8.27;;;12.20;99.90;;;;;;5054335;28;20216;-55
2021/12/30 02:20:51;;;;;;;33.93;9.07;;;12.20;99.90;;;;;;5056680;28;20232;-58
2021/12/30 02:23:34;;;;;;;26.07;8.17;;;12.20;99.90;;;;;;5056720;28;20630;-58
2021/12/30 02:26:13;;;;;;;22.37;8.60;;;12.20;99.90;;;;;;5058889;28;20293;-59
2021/12/30 02:28:41;;;;;;;35.40;9.37;;;12.30;99.90;;;;;;5057017;28;20251;-58
2021/12/30 02:31:14;;;;;;;27.30;9.27;;;12.30;99.90;;;;;;5058124;28;20663;-59
2021/12/30 02:33:42;;;;;;;25.17;8.83;;;12.30;99.90;;;;;;5056925;28;20225;-57
2021/12/30 02:36:11;;;;;;;32.13;9.77;;;12.30;99.90;;;;;;5058332;28;20212;-57
2021/12/30 02:38:43;;;;;;;25.47;9.50;;;12.30;99.90;;;;;;5057475;28;20255;-58
2021/12/30 02:41:15;;;;;;;34.20;10.40;;;12.30;99.90;;;;;;5056765;28;20212;-57
2021/12/30 02:43:42;;;;;;;28.93;9.90;;;12.30;99.90;;;;;;5057172;28;20653;-59
2021/12/30 02:46:10;;;;;;;25.53;10.23;;;12.40;99.90;;;;;;5056741;28;20358;-56
2021/12/30 02:48:41;;;;;;;27.13;10.13;;;12.40;99.90;;;;;;5057375;28;20768;-59
2021/12/30 02:51:10;;;;;;;29.30;10.00;;;12.40;99.90;;;;;;5060263;28;20626;-58
2021/12/30 02:53:37;;;;;;;29.20;9.93;;;12.40;99.90;;;;;;5037982;28;20237;-56
2021/12/30 02:56:06;;;;;;;28.70;11.37;;;12.40;99.90;;;;;;5055881;28;20193;-59
2021/12/30 02:58:33;;;;;;;27.77;10.93;;;12.40;99.90;;;;;;5056971;28;20260;-57
2021/12/30 03:01:09;;;;;;;22.43;10.63;;;12.50;99.90;;;;;;5058599;28;20280;-59
2021/12/30 03:03:37;;;;;;;32.80;10.90;;;12.50;99.90;;;;;;5071927;28;20292;-58
2021/12/30 03:06:06;;;;;;;27.23;11.10;;;12.50;99.90;;;;;;5059225;28;20244;-58
2021/12/30 03:08:33;;;;;;;32.03;11.77;;;12.50;99.90;;;;;;5056746;28;20237;-58
2021/12/30 03:11:05;;;;;;;31.13;11.57;;;12.40;99.90;;;;;;5059790;28;20218;-59
2021/12/30 03:13:33;;;;;;;29.57;11.03;;;12.50;99.90;;;;;;5055908;28;20215;-59
2021/12/30 03:16:03;;;;;;;24.10;10.93;;;12.50;99.90;;;;;;5043000;28;20208;-59
2021/12/30 03:18:32;;;;;;;31.73;12.07;;;12.40;99.90;;;;;;5052930;28;20256;-59
2021/12/30 03:21:02;;;;;;;31.03;11.37;;;12.50;99.90;;;;;;5042560;28;20983;-59
2021/12/30 03:23:29;;;;;;;28.80;10.97;;;12.50;99.90;;;;;;5057177;28;20218;-58
2021/12/30 03:25:56;;;;;;;30.90;12.80;;;12.40;99.90;;;;;;5057320;28;20225;-59
2021/12/30 03:28:23;;;;;;;28.10;11.00;;;12.40;99.90;;;;;;5056561;28;20559;-60
2021/12/30 03:30:51;;;;;;;32.47;11.80;;;12.40;99.90;;;;;;5056921;28;20632;-58
2021/12/30 03:33:20;;;;;;;24.50;9.80;;;12.50;99.90;;;;;;5056307;28;20666;-57
2021/12/30 03:35:47;;;;;;;22.57;10.90;;;12.50;99.90;;;;;;5055224;28;20639;-59
2021/12/30 03:38:14;;;;;;;19.40;10.93;;;12.50;99.90;;;;;;5057024;28;20671;-58
2021/12/30 03:40:41;;;;;;;20.30;10.83;;;12.50;99.90;;;;;;5056417;28;20694;-61
2021/12/30 03:43:08;;;;;;;19.13;10.47;;;12.50;99.90;;;;;;5055643;28;20566;-57
2021/12/30 03:45:35;;;;;;;18.77;10.27;;;12.50;99.90;;;;;;5057002;28;20238;-58
2021/12/30 03:48:02;;;;;;;19.17;10.30;;;12.50;99.90;;;;;;5055975;28;20206;-60
2021/12/30 03:50:30;;;;;;;21.17;11.00;;;12.50;99.90;;;;;;5056560;28;20221;-60
2021/12/30 03:52:59;;;;;;;22.80;11.23;;;12.60;99.90;;;;;;5058909;28;20308;-57
2021/12/30 03:55:29;;;;;;;21.87;11.23;;;12.50;99.90;;;;;;5056319;28;20602;-59
2021/12/30 03:57:57;;;;;;;22.70;11.00;;;12.60;99.90;;;;;;5053328;28;20214;-59
2021/12/30 04:00:26;;;;;;;20.93;10.97;;;12.60;99.90;;;;;;5055607;28;20211;-58
2021/12/30 04:02:53;;;;;;;19.17;9.40;;;12.70;99.90;;;;;;5039317;28;20296;-59
2021/12/30 04:05:21;;;;;;;15.93;9.43;;;12.70;99.90;;;;;;5056018;28;20207;-60
2021/12/30 04:07:48;;;;;;;12.27;8.07;;;12.80;99.90;;;;;;5041348;28;20301;-60
2021/12/30 04:10:17;;;;;;;11.43;7.93;;;12.80;99.90;;;;;;5055055;28;20254;-60
2021/12/30 04:12:45;;;;;;;11.53;7.37;;;12.80;99.90;;;;;;5052933;28;20289;-60
2021/12/30 04:15:12;;;;;;;11.27;6.93;;;12.90;99.90;;;;;;5058172;28;20211;-61
2021/12/30 04:17:39;;;;;;;11.87;7.30;;;12.90;99.90;;;;;;5053515;28;20199;-55
2021/12/30 04:20:09;;;;;;;10.13;7.13;;;12.90;99.90;;;;;;5055343;28;20602;-57
2021/12/30 04:22:37;;;;;;;14.27;7.17;;;13.00;99.90;;;;;;5057465;28;20199;-58
2021/12/30 04:25:07;;;;;;;11.33;6.73;;;13.00;99.90;;;;;;5055845;28;20276;-60
2021/12/30 04:27:34;;;;;;;8.53;6.50;;;13.10;99.90;;;;;;5070284;28;20219;-59
2021/12/30 04:30:03;;;;;;;9.83;7.00;;;13.10;99.90;;;;;;5056601;28;20202;-58
2021/12/30 04:32:30;;;;;;;7.90;5.93;;;13.10;99.90;;;;;;5040835;28;20294;-56
2021/12/30 04:34:57;;;;;;;10.13;6.73;;;13.10;99.90;;;;;;5054803;28;20219;-55
2021/12/30 04:37:24;;;;;;;10.13;6.07;;;13.10;99.90;;;;;;5055563;28;20208;-59
2021/12/30 04:39:51;;;;;;;8.67;5.83;;;13.10;99.90;;;;;;5055733;28;20196;-58
2021/12/30 04:42:18;;;;;;;7.57;5.90;;;13.10;99.90;;;;;;5072500;28;20257;-60
2021/12/30 04:44:47;;;;;;;8.77;6.00;;;13.20;99.90;;;;;;5057948;28;20231;-60
2021/12/30 04:47:19;;;;;;;8.27;5.97;;;13.10;99.90;;;;;;5069561;28;20289;-59
2021/12/30 04:49:46;;;;;;;9.33;6.63;;;13.10;99.90;;;;;;5056484;28;20197;-60
2021/12/30 04:52:13;;;;;;;10.03;7.30;;;13.10;99.90;;;;;;5057595;28;20299;-55
2021/12/30 04:54:40;;;;;;;11.37;8.40;;;13.20;99.90;;;;;;5056295;28;20266;-58
2021/12/30 04:57:07;;;;;;;10.10;7.17;;;13.20;99.90;;;;;;5057645;28;20204;-60
2021/12/30 04:59:34;;;;;;;13.57;9.23;;;13.20;99.90;;;;;;5056275;28;20674;-59
2021/12/30 05:02:01;;;;;;;11.20;8.70;;;13.20;99.90;;;;;;5057808;28;20686;-56
2021/12/30 05:04:28;;;;;;;11.87;8.50;;;13.30;99.90;;;;;;5056879;28;20211;-57
2021/12/30 05:06:55;;;;;;;13.63;8.63;;;13.30;99.90;;;;;;5057240;28;20646;-59
2021/12/30 05:09:22;;;;;;;10.87;8.00;;;13.30;99.90;;;;;;5057726;28;20228;-59
2021/12/30 05:11:49;;;;;;;10.93;8.07;;;13.30;99.90;;;;;;5057200;28;20224;-59
2021/12/30 05:14:16;;;;;;;12.73;8.17;;;13.30;99.90;;;;;;5054646;28;20208;-59
2021/12/30 05:16:44;;;;;;;11.50;7.43;;;13.30;99.90;;;;;;5054762;28;20224;-57
2021/12/30 05:19:11;;;;;;;10.30;7.70;;;13.30;99.90;;;;;;5054550;28;20238;-59
2021/12/30 05:21:38;;;;;;;8.23;6.40;;;13.40;99.90;;;;;;5056774;28;20253;-59
2021/12/30 05:24:06;;;;;;;8.90;6.97;;;13.40;99.90;;;;;;5056808;28;20253;-56
2021/12/30 05:26:33;;;;;;;7.87;6.03;;;13.40;99.90;;;;;;5058077;28;20719;-60
2021/12/30 05:29:00;;;;;;;6.50;5.60;;;13.50;99.90;;;;;;5058042;28;20226;-58
2021/12/30 05:31:27;;;;;;;6.90;5.63;;;13.50;99.90;;;;;;5058208;28;20258;-55
2021/12/30 05:33:54;;;;;;;6.93;5.07;;;13.50;99.90;;;;;;5055884;28;20210;-57
2021/12/30 05:36:21;;;;;;;5.93;4.50;;;13.50;99.90;;;;;;5060708;28;20232;-59
2021/12/30 05:38:51;;;;;;;5.80;4.47;;;13.60;99.90;;;;;;5054777;28;20738;-59
2021/12/30 05:41:19;;;;;;;7.93;4.80;;;13.60;99.90;;;;;;5052482;28;20655;-58
2021/12/30 05:43:45;;;;;;;6.30;4.90;;;13.60;99.90;;;;;;5052901;28;20228;-59
2021/12/30 05:46:12;;;;;;;6.20;4.87;;;13.60;99.90;;;;;;5055694;28;20290;-58
2021/12/30 05:48:39;;;;;;;6.10;4.60;;;13.60;99.90;;;;;;5036335;28;20299;-59
2021/12/30 05:51:06;;;;;;;5.93;4.10;;;13.60;99.90;;;;;;5053759;28;20207;-58
2021/12/30 05:53:33;;;;;;;5.93;4.87;;;13.60;99.90;;;;;;5056577;28;20227;-57
2021/12/30 05:56:00;;;;;;;7.60;5.13;;;13.60;99.90;;;;;;5054648;28;20210;-60
2021/12/30 05:58:27;;;;;;;8.50;5.63;;;13.60;99.90;;;;;;5053549;28;20651;-58
2021/12/30 06:00:54;;;;;;;7.67;4.63;;;13.60;99.90;;;;;;5053389;28;20195;-58
2021/12/30 06:03:21;;;;;;;6.60;4.67;;;13.60;99.90;;;;;;5054658;28;20555;-57
2021/12/30 06:05:49;;;;;;;8.43;4.83;;;13.60;99.90;;;;;;5054144;28;20208;-58
2021/12/30 06:08:17;;;;;;;5.57;4.37;;;13.60;99.90;;;;;;5055174;28;20297;-58
2021/12/30 06:10:45;;;;;;;8.40;5.07;;;13.60;99.90;;;;;;5057126;28;20199;-57
2021/12/30 06:13:12;;;;;;;5.77;3.90;;;13.60;99.90;;;;;;5046041;28;20221;-57
2021/12/30 06:15:39;;;;;;;5.60;4.30;;;13.60;99.90;;;;;;5059702;28;20242;-57
2021/12/30 06:18:06;;;;;;;8.30;4.40;;;13.60;99.90;;;;;;5054841;28;20246;-57
2021/12/30 06:20:33;;;;;;;5.60;3.50;;;13.60;99.90;;;;;;5053691;28;20718;-58
2021/12/30 06:23:00;;;;;;;7.00;4.10;;;13.50;99.90;;;;;;5050749;28;20240;-58
2021/12/30 06:25:27;;;;;;;6.80;4.13;;;13.60;99.90;;;;;;5054131;28;20262;-57
2021/12/30 06:27:56;;;;;;;6.83;4.50;;;13.50;99.90;;;;;;5054584;28;20230;-58
2021/12/30 06:30:23;;;;;;;5.20;4.13;;;13.60;99.90;;;;;;5054368;28;20215;-59
2021/12/30 06:32:50;;;;;;;7.03;4.50;;;13.60;99.90;;;;;;5054354;28;20608;-59
2021/12/30 06:35:17;;;;;;;5.87;3.90;;;13.60;99.90;;;;;;5055006;28;20195;-56
2021/12/30 06:37:44;;;;;;;3.80;3.13;;;13.60;99.90;;;;;;5052542;28;20256;-59
2021/12/30 06:40:13;;;;;;;6.23;3.70;;;13.60;99.90;;;;;;5052717;28;20218;-59
2021/12/30 06:42:44;;;;;;;5.20;3.47;;;13.60;99.90;;;;;;5055052;28;20207;-56
2021/12/30 06:45:12;;;;;;;5.57;3.77;;;13.60;99.90;;;;;;5055795;28;20208;-58
2021/12/30 06:47:45;;;;;;;4.57;3.30;;;13.60;99.90;;;;;;5050397;28;20199;-61
2021/12/30 06:50:14;;;;;;;3.77;3.17;;;13.60;99.90;;;;;;5054141;28;20223;-60
2021/12/30 06:52:42;;;;;;;5.07;3.97;;;13.60;99.90;;;;;;5054420;28;20245;-60
2021/12/30 06:55:10;;;;;;;5.77;3.73;;;13.60;99.90;;;;;;5054190;28;20227;-58
2021/12/30 06:57:37;;;;;;;4.43;3.63;;;13.60;99.90;;;;;;5053814;28;20209;-58
2021/12/30 07:00:07;;;;;;;3.77;3.20;;;13.70;99.90;;;;;;5053123;28;20204;-58
2021/12/30 07:02:34;;;;;;;3.30;2.87;;;13.70;99.90;;;;;;5053534;28;20257;-57
2021/12/30 07:05:03;;;;;;;4.13;2.73;;;13.70;99.90;;;;;;5056235;28;20710;-55
2021/12/30 07:07:30;;;;;;;5.13;2.60;;;13.70;99.90;;;;;;5056140;28;20239;-58
2021/12/30 07:09:56;;;;;;;3.87;2.87;;;13.70;99.90;;;;;;5059810;28;20297;-59
2021/12/30 07:12:23;;;;;;;3.07;2.37;;;13.70;99.90;;;;;;5058032;28;20216;-59
2021/12/30 07:14:50;;;;;;;6.50;3.23;;;13.70;99.90;;;;;;5054343;28;20211;-58
2021/12/30 07:17:17;;;;;;;4.97;2.47;;;13.70;99.90;;;;;;5057060;28;20679;-58
2021/12/30 07:19:44;;;;;;;2.50;2.17;;;13.70;99.90;;;;;;5071777;28;20282;-59
2021/12/30 07:22:11;;;;;;;2.63;2.23;;;13.70;99.90;;;;;;5059731;28;20232;-57
2021/12/30 07:24:58;;;;;;;4.67;2.30;;;13.70;99.90;;;;;;5054195;28;20311;-58
2021/12/30 07:27:25;;;;;;;2.27;2.00;;;13.70;99.90;;;;;;5055089;28;20299;-58
2021/12/30 07:29:52;;;;;;;2.17;1.97;;;13.70;99.90;;;;;;5057118;28;20202;-58
2021/12/30 07:32:19;;;;;;;2.70;1.90;;;13.70;99.90;;;;;;5056045;28;20215;-56
2021/12/30 07:34:45;;;;;;;3.17;2.10;;;13.70;99.90;;;;;;5057746;28;20223;-57
2021/12/30 07:37:14;;;;;;;3.90;2.57;;;13.70;99.90;;;;;;5058794;28;20253;-58
2021/12/30 07:39:41;;;;;;;3.60;3.17;;;13.80;99.90;;;;;;5055952;28;20538;-57
2021/12/30 07:42:08;;;;;;;3.10;2.80;;;13.80;99.90;;;;;;5058881;28;20235;-58
2021/12/30 07:44:36;;;;;;;3.17;2.87;;;13.80;99.90;;;;;;5057362;28;20305;-59
2021/12/30 07:47:16;;;;;;;3.30;3.00;;;13.80;99.90;;;;;;5056739;28;20196;-58
2021/12/30 07:49:43;;;;;;;3.90;3.60;;;13.90;99.90;;;;;;5055057;28;20322;-59
2021/12/30 07:52:10;;;;;;;2.90;2.43;;;13.90;99.90;;;;;;5055817;28;20656;-58
2021/12/30 07:54:37;;;;;;;3.93;2.80;;;13.90;99.90;;;;;;5059938;28;20232;-59
2021/12/30 07:57:04;;;;;;;3.00;2.70;;;13.80;99.90;;;;;;5056721;28;20196;-59
2021/12/30 07:59:31;;;;;;;2.67;2.23;;;13.80;99.90;;;;;;5057299;28;20322;-59
2021/12/30 08:01:58;;;;;;;1.97;1.70;;;13.90;99.90;;;;;;5056233;28;20343;-56
2021/12/30 08:04:25;;;;;;;2.97;2.17;;;13.90;99.90;;;;;;5052064;28;20656;-59
2021/12/30 08:06:52;;;;;;;3.47;1.97;;;13.90;99.90;;;;;;5059332;28;20219;-57
2021/12/30 08:09:19;;;;;;;2.80;2.13;;;13.90;99.90;;;;;;5060076;28;20241;-57
2021/12/30 08:11:46;;;;;;;3.67;2.30;;;13.90;99.90;;;;;;5057755;28;20209;-58
2021/12/30 08:14:13;;;;;;;2.10;1.87;;;13.90;99.90;;;;;;5057065;28;20323;-58
2021/12/30 08:16:39;;;;;;;2.53;2.10;;;13.90;99.90;;;;;;5056577;28;20292;-58
2021/12/30 08:19:06;;;;;;;2.20;2.00;;;14.00;99.90;;;;;;5055324;28;20200;-57
2021/12/30 08:21:33;;;;;;;3.20;2.30;;;13.90;99.90;;;;;;5059640;28;20319;-56
2021/12/30 08:24:00;;;;;;;3.57;2.53;;;13.90;99.90;;;;;;5060909;28;20291;-57
2021/12/30 08:26:27;;;;;;;5.20;3.00;;;14.00;99.90;;;;;;5059491;28;20634;-58
2021/12/30 08:28:53;;;;;;;6.10;2.70;;;14.00;99.90;;;;;;5057270;28;20310;-55
2021/12/30 08:31:20;;;;;;;3.00;2.47;;;14.00;99.90;;;;;;5055210;28;20675;-58
2021/12/30 08:33:47;;;;;;;3.10;2.50;;;14.00;99.90;;;;;;5054688;28;20760;-59
2021/12/30 08:36:14;;;;;;;4.93;2.33;;;14.00;99.90;;;;;;5061155;28;20196;-59
2021/12/30 08:38:41;;;;;;;4.07;2.30;;;14.00;99.90;;;;;;5061077;28;20252;-57
2021/12/30 08:41:07;;;;;;;6.90;2.80;;;14.00;99.90;;;;;;5058383;28;20307;-59
2021/12/30 08:43:34;;;;;;;3.77;2.73;;;14.00;99.90;;;;;;5059644;28;20214;-57
2021/12/30 08:46:02;;;;;;;3.47;2.50;;;14.00;99.90;;;;;;5059379;28;20221;-57
2021/12/30 08:48:33;;;;;;;5.13;2.77;;;14.00;99.90;;;;;;5055992;28;20199;-59
2021/12/30 08:51:01;;;;;;;3.57;3.23;;;14.10;99.90;;;;;;5055306;28;20262;-59
2021/12/30 08:53:29;;;;;;;7.13;3.77;;;14.10;99.90;;;;;;5056395;28;20309;-56
2021/12/30 08:55:56;;;;;;;6.40;4.10;;;14.10;99.90;;;;;;5057028;28;20284;-57
2021/12/30 08:58:23;;;;;;;8.07;4.43;;;14.10;99.90;;;;;;5057668;28;20241;-57
2021/12/30 09:00:50;;;;;;;8.07;5.77;;;14.10;99.90;;;;;;5052405;28;21072;-57
2021/12/30 09:03:17;;;;;;;8.93;6.50;;;14.10;99.90;;;;;;5054658;28;20199;-57
2021/12/30 09:05:45;;;;;;;8.97;6.07;;;14.10;99.90;;;;;;5052905;28;20230;-56
2021/12/30 09:08:12;;;;;;;8.97;6.20;;;14.10;99.90;;;;;;5054059;28;20287;-57
2021/12/30 09:10:45;;;;;;;10.50;5.97;;;14.20;99.90;;;;;;5053259;28;20213;-58
2021/12/30 09:13:15;;;;;;;11.57;5.63;;;14.20;99.90;;;;;;5051320;28;20718;-59
2021/12/30 09:15:42;;;;;;;6.73;4.30;;;14.20;99.90;;;;;;5053234;28;20205;-60
2021/12/30 09:18:10;;;;;;;6.80;4.27;;;14.30;99.90;;;;;;5056559;28;20204;-58
2021/12/30 09:20:39;;;;;;;10.70;5.47;;;14.30;99.90;;;;;;5054272;28;20232;-57
2021/12/30 09:23:07;;;;;;;9.47;5.77;;;14.30;99.90;;;;;;5047643;28;20296;-56
2021/12/30 09:25:35;;;;;;;9.87;5.77;;;14.30;99.90;;;;;;5052256;28;20231;-63
2021/12/30 09:28:03;;;;;;;8.40;5.80;;;14.40;99.90;;;;;;5053325;28;20453;-58
2021/12/30 09:30:30;;;;;;;11.50;5.90;;;14.40;99.90;;;;;;5054793;28;20306;-59
2021/12/30 09:33:00;;;;;;;10.03;5.53;;;14.30;99.90;;;;;;5052341;28;20308;-58
2021/12/30 09:35:27;;;;;;;10.27;5.03;;;14.40;99.90;;;;;;5055046;28;20196;-60
2021/12/30 09:37:55;;;;;;;8.40;5.00;;;14.40;99.90;;;;;;5056076;28;20212;-58
2021/12/30 09:40:22;;;;;;;6.73;4.93;;;14.40;99.90;;;;;;5049208;28;20283;-58
2021/12/30 09:42:53;;;;;;;8.80;4.33;;;14.40;99.90;;;;;;5056555;28;20217;-60
2021/12/30 09:45:26;;;;;;;9.63;4.80;;;14.40;99.90;;;;;;5054199;28;20197;-57
2021/12/30 09:47:55;;;;;;;8.83;4.23;;;14.40;99.90;;;;;;5051207;28;20216;-55
2021/12/30 09:50:30;;;;;;;8.63;4.33;;;14.40;99.90;;;;;;5050506;28;20211;-58
2021/12/30 09:52:58;;;;;;;7.00;3.83;;;14.50;99.90;;;;;;5053682;28;20311;-59
2021/12/30 09:55:29;;;;;;;10.57;4.17;;;14.50;99.90;;;;;;5054712;28;20555;-58
2021/12/30 09:57:58;;;;;;;10.73;4.17;;;14.50;99.90;;;;;;5058446;28;20202;-58
2021/12/30 10:00:26;;;;;;;9.47;4.10;;;14.50;99.90;;;;;;5057847;28;20192;-57
2021/12/30 10:02:52;;;;;;;9.00;3.37;;;14.50;99.90;;;;;;5056253;28;20223;-55
2021/12/30 10:05:25;;;;;;;7.00;3.80;;;14.60;99.90;;;;;;5053347;28;20202;-56
2021/12/30 10:08:06;;;;;;;12.63;4.60;;;14.60;99.90;;;;;;5056651;28;20291;-56
2021/12/30 10:10:35;;;;;;;7.13;3.17;;;14.60;99.90;;;;;;5053429;28;20648;-58
2021/12/30 10:13:22;;;;;;;6.57;3.23;;;14.60;99.90;;;;;;5053089;28;20220;-59
2021/12/30 10:15:52;;;;;;;9.87;3.30;;;14.70;99.90;;;;;;5053407;28;20262;-55
2021/12/30 10:18:23;;;;;;;9.07;3.27;;;14.70;99.90;;;;;;5057687;28;20221;-58
2021/12/30 10:20:51;;;;;;;7.50;2.70;;;14.80;99.90;;;;;;5051219;28;20658;-59
2021/12/30 10:23:24;;;;;;;6.33;3.00;;;14.70;99.90;;;;;;5052687;28;20203;-60
2021/12/30 10:25:58;;;;;;;8.33;3.23;;;14.70;99.90;;;;;;5056795;28;20261;-55
2021/12/30 10:28:30;;;;;;;9.67;3.17;;;14.60;99.90;;;;;;5055359;28;20231;-58
2021/12/30 10:31:01;;;;;;;10.20;3.27;;;14.70;99.90;;;;;;5054000;28;20289;-57
2021/12/30 10:33:30;;;;;;;7.87;2.80;;;14.60;99.90;;;;;;5055066;28;20338;-55
2021/12/30 10:35:58;;;;;;;5.03;2.27;;;14.60;99.90;;;;;;5056762;28;20285;-61
2021/12/30 10:38:29;;;;;;;9.10;2.67;;;14.60;99.90;;;;;;5057384;28;20751;-54
2021/12/30 10:41:01;;;;;;;10.57;3.20;;;14.60;99.90;;;;;;5058204;28;20234;-55
2021/12/30 10:43:44;;;;;;;12.10;2.87;;;14.60;99.90;;;;;;5066423;28;20562;-56
2021/12/30 10:46:14;;;;;;;10.97;3.03;;;14.70;99.90;;;;;;5054557;28;20301;-56
2021/12/30 10:49:05;;;;;;;8.77;3.07;;;14.70;99.90;;;;;;5055741;28;20207;-56
2021/12/30 10:51:38;;;;;;;5.10;2.87;;;14.70;99.90;;;;;;5052898;28;20208;-55
2021/12/30 10:54:13;;;;;;;7.70;3.00;;;14.70;99.90;;;;;;5059561;28;20799;-58
2021/12/30 10:56:44;;;;;;;6.83;3.00;;;14.80;99.90;;;;;;5059545;28;20611;-57
2021/12/30 10:59:11;;;;;;;9.93;3.57;;;14.80;99.90;;;;;;5062170;28;20213;-57
2021/12/30 11:01:40;;;;;;;5.77;2.67;;;14.80;99.90;;;;;;5062860;28;20253;-55
2021/12/30 11:04:08;;;;;;;9.30;3.10;;;14.90;99.90;;;;;;5059792;28;20291;-57
2021/12/30 11:06:35;;;;;;;10.77;3.87;;;14.90;99.90;;;;;;5057892;28;20294;-58
2021/12/30 11:09:18;;;;;;;13.20;3.40;;;14.90;99.90;;;;;;5057603;28;20262;-58
2021/12/30 11:11:52;;;;;;;11.90;3.50;;;14.80;99.90;;;;;;5062136;28;20224;-58
2021/12/30 11:14:24;;;;;;;7.23;3.10;;;14.90;99.90;;;;;;5058779;28;20316;-57
2021/12/30 11:17:06;;;;;;;11.73;3.47;;;14.80;99.90;;;;;;5056985;28;20428;-57
2021/12/30 11:19:40;;;;;;;8.67;3.33;;;14.80;99.90;;;;;;5058554;28;20207;-59
2021/12/30 11:22:13;;;;;;;9.87;3.73;;;14.70;99.90;;;;;;5052148;28;20196;-58
2021/12/30 11:24:40;;;;;;;5.50;2.97;;;14.80;99.90;;;;;;5057196;28;20277;-59
2021/12/30 11:27:10;;;;;;;8.03;3.13;;;14.80;99.90;;;;;;5059764;28;20226;-57
2021/12/30 11:29:39;;;;;;;11.07;3.37;;;14.80;99.90;;;;;;5064176;28;20238;-57
2021/12/30 11:32:07;;;;;;;9.13;3.33;;;14.80;99.90;;;;;;5062082;28;20291;-58
2021/12/30 11:34:34;;;;;;;9.10;3.20;;;14.80;99.90;;;;;;5075496;28;20219;-57
2021/12/30 11:37:02;;;;;;;4.30;2.63;;;14.80;99.90;;;;;;5062099;28;20195;-57
2021/12/30 11:39:29;;;;;;;6.97;2.97;;;14.90;99.90;;;;;;5074950;28;20248;-57
2021/12/30 11:42:26;;;;;;;8.43;3.07;;;14.90;99.90;;;;;;5054111;28;20327;-58
2021/12/30 11:45:02;;;;;;;10.87;3.70;;;15.00;99.90;;;;;;5054210;28;20605;-58
2021/12/30 11:47:32;;;;;;;8.40;3.40;;;15.00;99.90;;;;;;5055072;28;20234;-58
2021/12/30 11:50:01;;;;;;;10.23;3.77;;;15.00;99.90;;;;;;5056809;28;20191;-57
2021/12/30 11:52:50;;;;;;;9.20;3.70;;;15.10;99.90;;;;;;5058537;28;20299;-57
2021/12/30 11:55:51;;;;;;;9.20;3.50;;;15.30;99.90;;;;;;5056131;28;20214;-58
2021/12/30 12:00:59;;;;;;;13.47;3.73;;;15.80;99.90;;;;;;5056646;28;20203;-57
2021/12/30 12:03:40;;;;;;;8.57;3.20;;;16.00;99.90;;;;;;5057694;28;20271;-57
2021/12/30 12:06:46;;;;;;;3.67;3.00;;;16.10;99.90;;;;;;5058793;28;20215;-58
2021/12/30 12:09:19;;;;;;;7.60;3.60;;;15.90;99.90;;;;;;5054425;28;20277;-58
2021/12/30 12:11:49;;;;;;;4.47;3.10;;;15.80;99.90;;;;;;5059501;28;20210;-59
2021/12/30 12:14:23;;;;;;;7.83;3.07;;;15.60;99.90;;;;;;5055961;28;20639;-60
2021/12/30 12:17:02;;;;;;;7.53;2.90;;;15.50;99.90;;;;;;5057453;28;20586;-57
2021/12/30 12:19:49;;;;;;;5.90;3.10;;;15.50;99.90;;;;;;5055724;28;20254;-57
2021/12/30 12:22:19;;;;;;;7.33;3.30;;;15.30;99.90;;;;;;5060314;28;20229;-57
2021/12/30 12:24:48;;;;;;;4.73;3.10;;;15.30;99.90;;;;;;5053739;28;20239;-59
2021/12/30 12:27:18;;;;;;;6.40;2.67;;;15.30;99.90;;;;;;5056826;28;20238;-56
2021/12/30 12:29:49;;;;;;;5.37;2.97;;;15.20;99.90;;;;;;5053293;28;20318;-59
2021/12/30 12:32:19;;;;;;;5.37;3.10;;;15.20;99.90;;;;;;5057231;28;20238;-57
2021/12/30 12:34:55;;;;;;;8.87;2.80;;;15.10;99.90;;;;;;5056800;28;20304;-57
2021/12/30 12:37:40;;;;;;;8.40;2.73;;;15.20;99.90;;;;;;5058067;28;20305;-56
2021/12/30 12:40:37;;;;;;;9.43;2.70;;;15.10;99.90;;;;;;5056969;28;20231;-59
2021/12/30 12:43:14;;;;;;;5.97;2.70;;;15.10;99.90;;;;;;5055933;28;20261;-58
2021/12/30 12:45:50;;;;;;;4.47;3.27;;;15.10;99.90;;;;;;5051555;28;21023;-57
2021/12/30 12:50:46;;;;;;;7.50;3.10;;;15.10;99.90;;;;;;5056127;28;20203;-58
2021/12/30 12:53:38;;;;;;;9.23;4.03;;;15.10;99.90;;;;;;5055275;28;20235;-57
2021/12/30 12:56:10;;;;;;;10.00;4.27;;;15.00;99.90;;;;;;5056798;28;20267;-57
2021/12/30 12:58:40;;;;;;;4.73;4.07;;;15.00;99.90;;;;;;5053919;28;20269;-56